Terminal Aerodrome Forecast
Issued by NWS Central Illinois

Home | Current Version | Previous Version | Text Only | Print | Product List | Glossary On
Versions: 1 2 3 4 5 6 7 8 9 10 11 12 13 14 15 16 17 18 19 20 21 22 23 24 25 26
000
FTUS43 KILX 262338
TAFPIA
TAF
KPIA 262338Z 2700/2724 25007KT P6SM OVC012
     FM270800 VRB03KT 4SM BR OVC015
     FM271400 07005KT 1 1/2SM -SHRA BR OVC006
     FM272100 03008KT 3SM -RA BR OVC004=

USA.gov is the U.S. government's official web portal to all federal, state and local government web resources and services.